createdAt,value
2017-12-20T00:00:51.241Z,101922.41
2017-12-20T00:03:18.745Z,101916.03
2017-12-20T00:05:46.196Z,101913.09
2017-12-20T00:08:13.688Z,101919.77
2017-12-20T00:10:41.138Z,101920.98
2017-12-20T00:13:08.596Z,101920.99
2017-12-20T00:15:36.077Z,101919.09
2017-12-20T00:18:03.579Z,101917.45
2017-12-20T00:20:31.299Z,101919.98
2017-12-20T00:22:59.221Z,101913.50
2017-12-20T00:25:26.725Z,101922.72
2017-12-20T00:27:54.322Z,101924.14
2017-12-20T00:30:21.891Z,101919.26
2017-12-20T00:32:50.300Z,101913.72
2017-12-20T00:35:18.605Z,101921.20
2017-12-20T00:37:47.009Z,101927.88
2017-12-20T00:40:34.098Z,101926.67
2017-12-20T00:43:01.563Z,101921.61
2017-12-20T00:45:29.009Z,101924.83
2017-12-20T00:47:56.479Z,101922.09
2017-12-20T00:50:23.939Z,101918.77
2017-12-20T00:52:51.699Z,101920.78
2017-12-20T00:55:19.468Z,101923.24
2017-12-20T00:57:46.939Z,101925.84
2017-12-20T01:00:28.650Z,101927.78
2017-12-20T01:02:56.563Z,101937.09
2017-12-20T01:05:24.037Z,101932.63
2017-12-20T01:07:51.508Z,101921.89
2017-12-20T01:10:19.044Z,101921.89
2017-12-20T01:12:46.887Z,101931.31
2017-12-20T01:15:14.836Z,101926.05
2017-12-20T01:17:42.392Z,101933.35
2017-12-20T01:20:09.959Z,101933.62
2017-12-20T01:22:37.417Z,101948.52
2017-12-20T01:25:04.918Z,101946.09
2017-12-20T01:27:32.372Z,101940.83
2017-12-20T01:29:59.850Z,101938.09
2017-12-20T01:32:27.445Z,101931.09
2017-12-20T01:34:55.038Z,101929.98
2017-12-20T01:37:22.494Z,101922.89
2017-12-20T01:39:50.171Z,101916.94
2017-12-20T01:42:17.633Z,101917.52
2017-12-20T01:44:45.142Z,101917.52
2017-12-20T01:47:12.644Z,101922.72
2017-12-20T01:49:54.567Z,101920.36
2017-12-20T01:52:22.088Z,101914.72
2017-12-20T01:54:49.556Z,101916.20
2017-12-20T01:57:17.011Z,101921.36
2017-12-20T01:59:44.550Z,101920.15
2017-12-20T02:02:12.106Z,101909.31
2017-12-20T02:04:39.685Z,101893.14
2017-12-20T02:07:07.122Z,101902.77
2017-12-20T02:09:35.110Z,101914.92
2017-12-20T02:12:02.598Z,101905.50
2017-12-20T02:14:30.088Z,101901.73
2017-12-20T02:16:59.190Z,101907.41
2017-12-20T02:19:26.672Z,101910.04
2017-12-20T02:21:54.119Z,101901.94
2017-12-20T02:24:21.624Z,101909.34
2017-12-20T02:26:49.137Z,101913.30
2017-12-20T02:32:08.998Z,101924.82
2017-12-20T02:34:36.533Z,101917.52
2017-12-20T02:37:03.986Z,101910.94
2017-12-20T02:39:31.445Z,101918.94
2017-12-20T02:42:13.675Z,101914.61
2017-12-20T02:44:41.193Z,101923.20
2017-12-20T02:47:08.961Z,101932.30
2017-12-20T02:49:36.490Z,101933.42
2017-12-20T02:52:03.953Z,101930.40
2017-12-20T02:54:31.762Z,101926.45
2017-12-20T02:56:59.235Z,101939.62
2017-12-20T02:59:26.739Z,101943.67
2017-12-20T03:01:55.065Z,101943.15
2017-12-20T03:04:22.595Z,101945.47
2017-12-20T03:06:50.138Z,101945.20
2017-12-20T03:09:17.620Z,101943.26
2017-12-20T03:11:45.329Z,101942.67
2017-12-20T03:14:12.776Z,101939.00
2017-12-20T03:16:40.433Z,101943.05
2017-12-20T03:19:08.128Z,101944.78
2017-12-20T03:21:35.719Z,101945.27
2017-12-20T03:24:03.179Z,101946.78
2017-12-20T03:26:30.923Z,101948.83
2017-12-20T03:28:58.372Z,101945.98
2017-12-20T03:31:26.072Z,101955.52
2017-12-20T03:33:53.534Z,101951.16
2017-12-20T03:36:21.113Z,101960.67
2017-12-20T03:38:48.671Z,101960.05
2017-12-20T03:41:16.413Z,101962.47
2017-12-20T03:43:43.874Z,101954.69
2017-12-20T03:46:12.381Z,101942.25
2017-12-20T03:51:33.078Z,101942.05
2017-12-20T03:54:01.348Z,101939.30
2017-12-20T03:56:30.990Z,101931.20
2017-12-20T03:58:58.518Z,101930.41
2017-12-20T04:01:26.035Z,101928.56
2017-12-20T04:03:53.529Z,101936.77
2017-12-20T04:06:21.076Z,101933.94
2017-12-20T04:09:12.360Z,101932.83
2017-12-20T04:11:40.744Z,101928.36
2017-12-20T04:14:08.286Z,101934.63
2017-12-20T04:16:35.719Z,101935.45
2017-12-20T04:19:03.467Z,101938.09
2017-12-20T04:21:30.987Z,101931.61
2017-12-20T04:23:58.473Z,101938.77
2017-12-20T04:26:25.945Z,101931.68
2017-12-20T04:28:53.657Z,101935.24
2017-12-20T04:31:21.146Z,101935.23
2017-12-20T04:33:48.620Z,101930.08
2017-12-20T04:36:16.100Z,101931.08
2017-12-20T04:38:43.648Z,101918.02
2017-12-20T04:41:11.151Z,101920.82
2017-12-20T04:43:38.615Z,101926.50
2017-12-20T04:46:06.161Z,101925.59
2017-12-20T04:48:33.652Z,101929.91
2017-12-20T04:51:01.117Z,101928.18
2017-12-20T04:53:28.567Z,101926.97
2017-12-20T04:55:56.038Z,101921.43
2017-12-20T04:58:23.558Z,101922.84
2017-12-20T05:00:51.053Z,101921.11
2017-12-20T05:03:18.536Z,101923.63
2017-12-20T05:05:46.029Z,101922.73
2017-12-20T05:08:13.483Z,101917.06
2017-12-20T05:10:40.998Z,101917.95
2017-12-20T05:13:08.438Z,101932.73
2017-12-20T05:15:35.913Z,101940.00
2017-12-20T05:18:03.365Z,101947.09
2017-12-20T05:20:30.899Z,101947.99
2017-12-20T05:22:59.286Z,101953.37
2017-12-20T05:25:26.733Z,101953.38
2017-12-20T05:27:54.203Z,101953.27
2017-12-20T05:30:21.766Z,101953.88
2017-12-20T05:32:49.304Z,101954.98
2017-12-20T05:35:16.841Z,101958.52
2017-12-20T05:37:44.271Z,101956.89
2017-12-20T05:40:12.801Z,101955.09
2017-12-20T05:42:40.260Z,101946.69
2017-12-20T05:45:07.769Z,101953.48
2017-12-20T05:47:35.327Z,101955.80
2017-12-20T05:50:04.310Z,101961.17
2017-12-20T05:52:32.601Z,101952.59
2017-12-20T05:55:00.342Z,101949.27
2017-12-20T05:57:28.042Z,101950.80
2017-12-20T05:59:56.715Z,101959.49
2017-12-20T06:02:24.413Z,101960.08
2017-12-20T06:04:52.696Z,101965.17
2017-12-20T06:07:20.370Z,101972.86
2017-12-20T06:09:47.850Z,101978.23
2017-12-20T06:12:15.407Z,101988.13
2017-12-20T06:14:42.951Z,101981.45
2017-12-20T06:17:10.463Z,101990.66
2017-12-20T06:19:42.983Z,101988.66
2017-12-20T06:22:10.796Z,101988.45
2017-12-20T06:24:38.281Z,101986.66
2017-12-20T06:27:06.548Z,101986.45
2017-12-20T06:29:34.032Z,101988.24
2017-12-20T06:32:01.526Z,101982.77
2017-12-20T06:34:29.036Z,101987.43
2017-12-20T06:36:56.607Z,101994.23
2017-12-20T06:39:24.156Z,101992.03
2017-12-20T06:41:51.937Z,101997.41
2017-12-20T06:44:19.428Z,102002.27
2017-12-20T06:46:46.944Z,102002.48
2017-12-20T06:49:15.301Z,102004.70
2017-12-20T06:51:42.850Z,102005.44
2017-12-20T06:54:10.402Z,102003.49
2017-12-20T06:56:37.986Z,102009.91
2017-12-20T06:59:05.556Z,102013.34
2017-12-20T07:01:33.078Z,102019.02
2017-12-20T07:04:00.557Z,102022.80
2017-12-20T07:06:28.056Z,102034.74
2017-12-20T07:08:55.576Z,102037.98
2017-12-20T07:11:23.091Z,102031.67
2017-12-20T07:13:50.568Z,102026.81
2017-12-20T07:16:18.053Z,102028.01
2017-12-20T07:18:45.535Z,102028.70
2017-12-20T07:21:13.085Z,102027.39
2017-12-20T07:23:40.552Z,102032.96
2017-12-20T07:26:08.027Z,102031.11
2017-12-20T07:28:35.538Z,102030.41
2017-12-20T07:31:03.030Z,102035.36
2017-12-20T07:33:30.517Z,102038.50
2017-12-20T07:35:58.062Z,102034.23
2017-12-20T07:38:25.628Z,102041.03
2017-12-20T07:40:53.780Z,102049.39
2017-12-20T07:43:21.288Z,102053.23
2017-12-20T07:45:48.776Z,102044.84
2017-12-20T07:48:16.263Z,102052.02
2017-12-20T07:50:43.826Z,102050.61
2017-12-20T07:53:11.379Z,102048.19
2017-12-20T07:55:38.914Z,102052.75
2017-12-20T07:58:06.486Z,102054.75
2017-12-20T08:00:34.035Z,102053.13
2017-12-20T08:03:01.561Z,102060.13
2017-12-20T08:05:29.045Z,102054.66
2017-12-20T08:07:56.501Z,102062.96
2017-12-20T08:10:24.303Z,102057.30
2017-12-20T08:12:51.984Z,102057.50
2017-12-20T08:15:20.283Z,102057.52
2017-12-20T08:17:47.786Z,102063.20
2017-12-20T08:20:15.304Z,102070.09
2017-12-20T08:22:42.869Z,102069.68
2017-12-20T08:25:10.620Z,102080.63
2017-12-20T08:27:38.354Z,102076.00
2017-12-20T08:30:05.868Z,102077.23
2017-12-20T08:32:33.415Z,102088.45
2017-12-20T08:35:00.930Z,102095.66
2017-12-20T08:37:30.684Z,102093.14
2017-12-20T08:39:58.277Z,102091.74
2017-12-20T08:42:25.838Z,102100.53
2017-12-20T08:44:53.394Z,102090.86
2017-12-20T08:47:21.255Z,102092.95
2017-12-20T08:49:48.832Z,102087.17
2017-12-20T08:52:16.369Z,102088.31
2017-12-20T08:54:44.174Z,102090.64
2017-12-20T08:57:11.754Z,102081.44
2017-12-20T08:59:39.254Z,102086.91
2017-12-20T09:02:06.822Z,102082.95
2017-12-20T09:04:34.351Z,102086.91
2017-12-20T09:07:01.882Z,102083.95
2017-12-20T09:09:29.403Z,102082.13
2017-12-20T09:11:56.865Z,102080.82
2017-12-20T09:14:24.435Z,102083.56
2017-12-20T09:16:51.911Z,102084.41
2017-12-20T09:19:19.436Z,102087.05
2017-12-20T09:21:46.930Z,102084.44
2017-12-20T09:24:14.399Z,102084.86
2017-12-20T09:26:42.002Z,102085.50
2017-12-20T09:29:09.534Z,102079.84
2017-12-20T09:31:37.064Z,102081.79
2017-12-20T09:34:04.541Z,102082.10
2017-12-20T09:36:32.042Z,102082.41
2017-12-20T09:39:00.499Z,102081.80
2017-12-20T09:41:27.940Z,102087.69
2017-12-20T09:43:55.416Z,102086.38
2017-12-20T09:46:23.252Z,102086.05
2017-12-20T09:48:50.710Z,102086.27
2017-12-20T09:51:18.209Z,102086.16
2017-12-20T09:53:46.036Z,102085.64
2017-12-20T09:56:15.658Z,102090.21
2017-12-20T09:58:44.048Z,102081.59
2017-12-20T10:01:11.637Z,102089.60
2017-12-20T10:03:39.669Z,102089.60
2017-12-20T10:06:08.018Z,102087.90
2017-12-20T10:08:35.574Z,102086.75
2017-12-20T10:11:03.119Z,102091.32
2017-12-20T10:13:38.780Z,102096.28
2017-12-20T10:16:06.504Z,102089.91
2017-12-20T10:18:34.046Z,102086.42
2017-12-20T10:21:01.541Z,102080.36
2017-12-20T10:23:29.001Z,102086.14
2017-12-20T10:25:56.521Z,102079.05
2017-12-20T10:28:24.071Z,102079.27
2017-12-20T10:33:49.681Z,102081.42
2017-12-20T10:36:17.165Z,102077.47
2017-12-20T10:38:49.751Z,102075.53
2017-12-20T10:41:17.253Z,102075.53
2017-12-20T10:43:45.214Z,102071.89
2017-12-20T10:46:12.711Z,102069.36
2017-12-20T10:48:40.195Z,102066.92
2017-12-20T10:51:07.710Z,102066.52
2017-12-20T10:53:35.178Z,102071.27
2017-12-20T10:56:03.615Z,102074.63
2017-12-20T10:58:31.180Z,102072.62
2017-12-20T11:03:55.992Z,102065.44
2017-12-20T11:06:23.551Z,102059.27
2017-12-20T11:08:51.138Z,102067.48
2017-12-20T11:11:18.756Z,102059.28
2017-12-20T11:13:46.240Z,102054.91
2017-12-20T11:16:13.714Z,102061.38
2017-12-20T11:18:41.675Z,102060.78
2017-12-20T11:21:09.213Z,102063.30
2017-12-20T11:23:37.656Z,102062.41
2017-12-20T11:26:05.211Z,102055.30
2017-12-20T11:28:34.386Z,102052.67
2017-12-20T11:31:02.058Z,102054.20
2017-12-20T11:33:29.640Z,102043.45
2017-12-20T11:35:57.191Z,102048.22
2017-12-20T11:38:24.709Z,102042.25
2017-12-20T11:40:52.186Z,102047.09
2017-12-20T11:43:19.780Z,102045.66
2017-12-20T11:45:47.847Z,102045.95
2017-12-20T11:48:15.346Z,102037.92
2017-12-20T11:50:42.893Z,102031.45
2017-12-20T11:53:10.425Z,102037.12
2017-12-20T11:55:38.113Z,102034.58
2017-12-20T11:58:06.009Z,102037.33
2017-12-20T12:00:34.282Z,102032.09
2017-12-20T12:03:02.553Z,102025.30
2017-12-20T12:05:30.101Z,102033.61
2017-12-20T12:07:57.688Z,102033.30
2017-12-20T12:10:25.308Z,102021.74
2017-12-20T12:12:54.009Z,102031.77
2017-12-20T12:15:21.500Z,102028.45
2017-12-20T12:17:50.062Z,102023.08
2017-12-20T12:20:17.590Z,102025.19
2017-12-20T12:25:18.441Z,102018.90
2017-12-20T12:27:45.931Z,102013.81
2017-12-20T12:30:13.432Z,102012.41
2017-12-20T12:32:41.150Z,102016.55
2017-12-20T12:35:10.416Z,102020.79
2017-12-20T12:37:38.514Z,102015.45
2017-12-20T12:40:06.283Z,102014.64
2017-12-20T12:42:34.120Z,102014.48
2017-12-20T12:45:01.689Z,102013.36
2017-12-20T12:47:29.195Z,102027.56
2017-12-20T12:49:58.842Z,102019.11
2017-12-20T12:52:26.428Z,102015.91
2017-12-20T12:54:53.961Z,102017.76
2017-12-20T12:57:21.496Z,102015.89
2017-12-20T13:05:34.683Z,102010.45
2017-12-20T13:08:02.204Z,102009.45
2017-12-20T13:10:31.398Z,102005.98
2017-12-20T13:12:59.460Z,102011.27
2017-12-20T13:15:27.171Z,102009.36
2017-12-20T13:17:54.731Z,102004.75
2017-12-20T13:20:22.270Z,102001.02
2017-12-20T13:22:49.792Z,102001.02
2017-12-20T13:25:17.343Z,102006.41
2017-12-20T13:27:44.870Z,102001.45
2017-12-20T13:30:12.326Z,102002.05
2017-12-20T13:32:39.844Z,102005.41
2017-12-20T13:35:08.097Z,102007.12
2017-12-20T13:37:35.668Z,102004.05
2017-12-20T13:40:03.191Z,102003.94
2017-12-20T13:42:30.667Z,102010.42
2017-12-20T13:44:58.228Z,102015.70
2017-12-20T13:47:25.741Z,102013.48
2017-12-20T13:49:53.282Z,102010.13
2017-12-20T13:52:20.836Z,102010.77
2017-12-20T13:54:49.722Z,102016.46
2017-12-20T13:57:18.351Z,102019.90
2017-12-20T13:59:45.912Z,102016.84
2017-12-20T14:02:13.586Z,102022.96
2017-12-20T14:04:41.289Z,102020.92
2017-12-20T14:07:09.006Z,102026.61
2017-12-20T14:09:42.520Z,102022.55
2017-12-20T14:12:10.344Z,102022.84
2017-12-20T14:14:38.672Z,102017.44
2017-12-20T14:17:06.323Z,102015.69
2017-12-20T14:22:27.134Z,102008.82
2017-12-20T14:24:55.540Z,102008.63
2017-12-20T14:27:23.082Z,102003.06
2017-12-20T14:29:51.394Z,102005.71
2017-12-20T14:32:18.940Z,102005.91
2017-12-20T14:34:46.525Z,102005.71
2017-12-20T14:37:14.020Z,102003.97
2017-12-20T14:39:41.596Z,101999.61
2017-12-20T14:42:09.117Z,101998.41
2017-12-20T14:44:36.694Z,101993.14
2017-12-20T14:47:06.562Z,101990.82
2017-12-20T14:49:34.195Z,101992.33
2017-12-20T14:52:01.711Z,101994.47
2017-12-20T14:54:29.204Z,102008.15
2017-12-20T14:56:57.498Z,102010.69
2017-12-20T14:59:30.018Z,102003.81
2017-12-20T15:01:57.486Z,102009.37
2017-12-20T15:04:24.967Z,102011.22
2017-12-20T15:06:52.494Z,102012.54
2017-12-20T15:09:19.985Z,102010.80
2017-12-20T15:11:47.514Z,102008.59
2017-12-20T15:14:15.066Z,102013.13
2017-12-20T15:16:43.521Z,102017.29
2017-12-20T15:19:11.102Z,102016.07
2017-12-20T15:21:38.821Z,102012.22
2017-12-20T15:24:06.291Z,102010.21
2017-12-20T15:26:33.831Z,102008.06
2017-12-20T15:29:24.965Z,102007.96
2017-12-20T15:31:54.534Z,102004.31
2017-12-20T15:34:23.116Z,101998.52
2017-12-20T15:36:50.655Z,101999.15
2017-12-20T15:39:18.191Z,101993.56
2017-12-20T15:41:45.855Z,101990.52
2017-12-20T15:44:15.058Z,101999.95
2017-12-20T15:46:43.879Z,101993.67
2017-12-20T15:49:11.411Z,101993.15
2017-12-20T15:51:38.920Z,101988.30
2017-12-20T15:54:06.392Z,101995.41
2017-12-20T15:56:33.912Z,101990.23
2017-12-20T15:59:01.438Z,101999.26
2017-12-20T16:01:28.956Z,102008.07
2017-12-20T16:03:56.414Z,102013.66
2017-12-20T16:06:23.976Z,102008.87
2017-12-20T16:08:51.468Z,102014.55
2017-12-20T16:11:19.171Z,102010.19
2017-12-20T16:13:46.612Z,102018.51
2017-12-20T16:16:14.175Z,102018.92
2017-12-20T16:18:41.752Z,102017.50
2017-12-20T16:21:09.208Z,102016.30
2017-12-20T16:23:37.681Z,102015.18
2017-12-20T16:26:05.283Z,102017.70
2017-12-20T16:28:32.763Z,102018.41
2017-12-20T16:31:00.658Z,102018.61
2017-12-20T16:33:28.156Z,102010.29
2017-12-20T16:35:55.692Z,102010.29
2017-12-20T16:38:23.208Z,102011.50
2017-12-20T16:40:50.746Z,102007.58
2017-12-20T16:43:19.959Z,102004.41
2017-12-20T16:45:47.561Z,102006.95
2017-12-20T16:48:15.114Z,102008.48
2017-12-20T16:50:42.647Z,102016.08
2017-12-20T16:53:10.246Z,102014.66
2017-12-20T16:55:37.798Z,102012.92
2017-12-20T16:58:05.314Z,102019.44
2017-12-20T17:00:32.853Z,102018.30
2017-12-20T17:03:00.349Z,102020.66
2017-12-20T17:05:27.896Z,102015.77
2017-12-20T17:07:55.447Z,102015.17
2017-12-20T17:10:22.989Z,102011.81
2017-12-20T17:12:50.734Z,102015.77
2017-12-20T17:15:18.269Z,102004.01
2017-12-20T17:17:45.772Z,102009.80
2017-12-20T17:20:13.244Z,102005.54
2017-12-20T17:22:40.746Z,102004.01
2017-12-20T17:25:08.310Z,102008.59
2017-12-20T17:27:35.815Z,102005.02
2017-12-20T17:30:03.499Z,102002.80
2017-12-20T17:32:31.040Z,101999.05
2017-12-20T17:34:58.518Z,101993.56
2017-12-20T17:37:26.059Z,101987.80
2017-12-20T17:39:53.619Z,101984.75
2017-12-20T17:42:21.074Z,101980.91
2017-12-20T17:44:48.548Z,101977.27
2017-12-20T17:47:16.016Z,101984.34
2017-12-20T17:49:43.508Z,101976.64
2017-12-20T17:52:11.025Z,101984.95
2017-12-20T17:54:38.765Z,101981.39
2017-12-20T17:57:06.275Z,101982.81
2017-12-20T17:59:33.984Z,101975.84
2017-12-20T18:02:01.455Z,101983.65
2017-12-20T18:04:29.032Z,101990.13
2017-12-20T18:06:57.799Z,101985.97
2017-12-20T18:09:25.307Z,101985.34
2017-12-20T18:11:52.822Z,101992.35
2017-12-20T18:14:20.455Z,101993.56
2017-12-20T18:16:47.952Z,101996.72
2017-12-20T18:19:15.565Z,102002.09
2017-12-20T18:21:43.065Z,102006.95
2017-12-20T18:24:10.642Z,102007.17
2017-12-20T18:26:38.137Z,102013.13
2017-12-20T18:32:08.264Z,102013.44
2017-12-20T18:34:35.766Z,102011.33
2017-12-20T18:37:03.220Z,102017.19
2017-12-20T18:39:30.793Z,102012.83
2017-12-20T18:41:58.298Z,102017.50
2017-12-20T18:44:25.772Z,102021.88
2017-12-20T18:46:53.617Z,102017.41
2017-12-20T18:49:21.188Z,102018.62
2017-12-20T18:51:48.711Z,102008.98
2017-12-20T18:54:16.226Z,102018.09
2017-12-20T18:56:44.078Z,102030.48
2017-12-20T18:59:11.689Z,102030.48
2017-12-20T19:01:39.708Z,102038.17
2017-12-20T19:04:07.379Z,102035.44
2017-12-20T19:06:34.881Z,102041.44
2017-12-20T19:09:02.393Z,102046.50
2017-12-20T19:11:29.879Z,102047.09
2017-12-20T19:13:57.712Z,102042.33
2017-12-20T19:16:25.286Z,102043.55
2017-12-20T19:18:52.813Z,102041.44
2017-12-20T19:21:20.330Z,102050.14
2017-12-20T19:23:47.871Z,102048.02
2017-12-20T19:26:15.408Z,102042.23
2017-12-20T19:28:42.974Z,102041.22
2017-12-20T19:31:10.725Z,102031.69
2017-12-20T19:33:38.192Z,102032.59
2017-12-20T19:36:05.682Z,102027.52
2017-12-20T19:38:33.174Z,102030.78
2017-12-20T19:41:00.800Z,102020.94
2017-12-20T19:43:28.343Z,102022.25
2017-12-20T19:45:55.842Z,102024.09
2017-12-20T19:48:23.382Z,102021.95
2017-12-20T19:50:50.943Z,102013.66
2017-12-20T19:53:18.413Z,102012.65
2017-12-20T19:55:46.050Z,102006.86
2017-12-20T19:58:13.540Z,102002.10
2017-12-20T20:00:41.054Z,101997.02
2017-12-20T20:03:08.557Z,102003.02
2017-12-20T20:05:36.383Z,101997.43
2017-12-20T20:08:03.851Z,102003.50
2017-12-20T20:10:31.304Z,102003.91
2017-12-20T20:12:58.816Z,102006.23
2017-12-20T20:15:26.285Z,102005.85
2017-12-20T20:17:53.741Z,102005.55
2017-12-20T20:20:21.252Z,101996.91
2017-12-20T20:22:49.112Z,101992.88
2017-12-20T20:25:16.627Z,101991.05
2017-12-20T20:27:44.072Z,101990.94
2017-12-20T20:30:11.573Z,101989.31
2017-12-20T20:32:39.127Z,101988.41
2017-12-20T20:35:06.635Z,101991.95
2017-12-20T20:37:34.118Z,101997.22
2017-12-20T20:42:54.009Z,101994.98
2017-12-20T20:45:21.517Z,101984.23
2017-12-20T20:47:49.007Z,101986.06
2017-12-20T20:50:21.446Z,101978.48
2017-12-20T20:52:48.958Z,101983.74
2017-12-20T20:55:16.447Z,101979.97
2017-12-20T20:57:43.927Z,101988.09
2017-12-20T21:00:21.120Z,101988.20
2017-12-20T21:02:48.581Z,101991.66
2017-12-20T21:05:16.128Z,101992.87
2017-12-20T21:07:43.613Z,101989.83
2017-12-20T21:10:16.113Z,101989.93
2017-12-20T21:12:43.668Z,101983.03
2017-12-20T21:15:11.163Z,101981.60
2017-12-20T21:17:38.945Z,101982.81
2017-12-20T21:20:06.491Z,101983.44
2017-12-20T21:22:34.059Z,101983.65
2017-12-20T21:25:01.569Z,101982.61
2017-12-20T21:27:29.033Z,101984.03
2017-12-20T21:29:56.605Z,101985.87
2017-12-20T21:32:24.161Z,101984.14
2017-12-20T21:34:51.755Z,101989.09
2017-12-20T21:37:19.269Z,101984.95
2017-12-20T21:39:47.026Z,101979.97
2017-12-20T21:42:14.546Z,101970.36
2017-12-20T21:44:42.062Z,101982.13
2017-12-20T21:47:09.597Z,101978.37
2017-12-20T21:49:37.181Z,101974.52
2017-12-20T21:52:04.706Z,101973.39
2017-12-20T21:54:32.234Z,101975.62
2017-12-20T21:56:59.688Z,101974.20
2017-12-20T21:59:27.757Z,101968.63
2017-12-20T22:01:55.245Z,101965.28
2017-12-20T22:04:22.762Z,101963.83
2017-12-20T22:06:50.469Z,101962.58
2017-12-20T22:09:18.038Z,101962.31
2017-12-20T22:11:45.531Z,101967.45
2017-12-20T22:14:13.093Z,101972.92
2017-12-20T22:16:40.605Z,101968.95
2017-12-20T22:19:08.113Z,101982.05
2017-12-20T22:21:36.458Z,101981.22
2017-12-20T22:24:03.885Z,101984.05
2017-12-20T22:26:31.401Z,101984.14
2017-12-20T22:28:58.876Z,101987.98
2017-12-20T22:31:26.430Z,101993.27
2017-12-20T22:33:53.914Z,101987.28
2017-12-20T22:36:21.574Z,101980.16
2017-12-20T22:38:49.092Z,101976.09
2017-12-20T22:41:16.545Z,101977.11
2017-12-20T22:43:44.023Z,101977.31
2017-12-20T22:46:11.497Z,101978.83
2017-12-20T22:48:39.017Z,101983.63
2017-12-20T22:51:11.569Z,101985.03
2017-12-20T22:53:39.047Z,101968.94
2017-12-20T22:56:06.505Z,101959.50
2017-12-20T22:58:33.951Z,101958.89
2017-12-20T23:01:01.424Z,101944.06
2017-12-20T23:03:28.900Z,101942.75
2017-12-20T23:05:56.449Z,101955.14
2017-12-20T23:08:23.963Z,101964.50
2017-12-20T23:10:51.810Z,101968.46
2017-12-20T23:13:19.312Z,101959.52
2017-12-20T23:15:46.804Z,101953.38
2017-12-20T23:18:14.289Z,101949.48
2017-12-20T23:20:41.753Z,101955.16
2017-12-20T23:23:09.259Z,101960.89
2017-12-20T23:25:36.864Z,101967.98
2017-12-20T23:28:04.328Z,101969.53
2017-12-20T23:30:33.779Z,101958.79
2017-12-20T23:33:01.559Z,101960.70
2017-12-20T23:35:29.990Z,101958.70
2017-12-20T23:37:57.543Z,101952.90
2017-12-20T23:40:25.220Z,101952.00
2017-12-20T23:42:52.677Z,101939.83
2017-12-20T23:45:20.204Z,101939.83
2017-12-20T23:47:47.720Z,101937.80
2017-12-20T23:50:16.030Z,101924.04
2017-12-20T23:52:43.906Z,101910.65
2017-12-20T23:55:11.389Z,101907.39
2017-12-20T23:57:38.866Z,101902.97
